Plano, Idaho
Current Conditions -  °F | °C
As of 5:53 AM on Tuesday 21 Oct 2014 (Local Time) from KRXE Reporting Station
Broken Clouds Broken Clouds  
Wind Chill: 50°   Ceiling: 9000
Heat Index: 50°   Visibility: 10mi
Dew Point: 39°   Wind: 8mph
Humidity: 66%   Direction: 80°E
Pressure: 29.83"   Gusts: NA
Location:  43.7568°N, 111.624°W
Report Text: KRXE 211153Z AUTO 08007KT 10SM BKN090 BKN110 10/04 A2983 RMK AO2 RAE1057 TSE02 SLP067 P0000 60001 70001 T01000039 10161 20056 56005
Loading
Personal Weather Stations






























Interactive Weather Map
Tropical Storm Tracking
New forecast layout! Learn more

10-Day Weather Forecast

Advertisements
Track Severe Weather on mobile